createdAt,value
2022-08-26T00:00:58.650Z,62079.81
2022-08-26T00:03:25.275Z,62054.94
2022-08-26T00:05:51.637Z,62129.53
2022-08-26T00:08:18.353Z,62148.19
2022-08-26T00:10:44.720Z,62137.81
2022-08-26T00:13:11.268Z,62260.06
2022-08-26T00:15:38.230Z,62367.81
2022-08-26T00:18:04.736Z,62369.91
2022-08-26T00:20:48.768Z,62361.59
2022-08-26T00:23:15.301Z,62394.75
2022-08-26T00:25:42.736Z,62384.41
2022-08-26T00:28:09.119Z,62338.81
2022-08-26T00:30:37.809Z,62293.22
2022-08-26T00:33:05.529Z,62268.38
2022-08-26T00:35:33.536Z,62295.31
2022-08-26T00:38:00.524Z,62233.13
2022-08-26T00:40:30.011Z,62195.84
2022-08-26T00:42:56.468Z,62237.28
2022-08-26T00:45:23.124Z,62173.06
2022-08-26T00:47:52.146Z,62181.34
2022-08-26T00:50:19.853Z,62224.84
2022-08-26T00:52:46.638Z,62193.78
2022-08-26T00:55:20.458Z,62220.72
2022-08-26T00:57:48.680Z,62214.50
2022-08-26T01:00:17.479Z,62141.97
2022-08-26T01:02:46.836Z,62110.91
2022-08-26T01:05:14.087Z,62121.25
2022-08-26T01:07:40.802Z,62073.59
2022-08-26T01:10:08.795Z,62023.88
2022-08-26T01:12:40.137Z,61978.28
2022-08-26T01:15:07.591Z,61912.00
2022-08-26T01:17:38.326Z,62044.59
2022-08-26T01:20:11.503Z,61872.63
2022-08-26T01:22:50.721Z,61870.56
2022-08-26T01:25:19.429Z,61945.16
2022-08-26T01:27:46.416Z,61938.94
2022-08-26T01:30:15.684Z,61928.56
2022-08-26T01:32:42.234Z,61982.44
2022-08-26T01:35:08.737Z,61951.34
2022-08-26T01:37:36.211Z,61990.72
2022-08-26T01:40:05.323Z,61905.78
2022-08-26T01:42:31.730Z,61849.84
2022-08-26T01:44:59.948Z,61866.41
2022-08-26T01:47:26.813Z,61903.72
2022-08-26T01:49:56.627Z,61899.56
2022-08-26T01:52:24.525Z,61916.13
2022-08-26T01:54:55.392Z,61876.78
2022-08-26T01:57:21.821Z,61891.28
2022-08-26T01:59:50.286Z,61870.56
2022-08-26T02:02:16.672Z,61798.03
2022-08-26T02:04:45.664Z,61928.56
2022-08-26T02:07:12.268Z,61928.56
2022-08-26T02:09:41.280Z,61957.56
2022-08-26T02:12:08.200Z,61818.75
2022-08-26T02:14:43.776Z,61887.13
2022-08-26T02:17:12.110Z,61870.56
2022-08-26T02:19:40.704Z,61795.97
2022-08-26T02:22:08.769Z,61816.69
2022-08-26T02:24:57.697Z,61812.53
2022-08-26T02:27:25.417Z,61845.69
2022-08-26T02:30:20.904Z,61764.91
2022-08-26T02:32:47.397Z,61824.97
2022-08-26T02:35:18.191Z,61762.81
2022-08-26T02:37:47.452Z,61783.53
2022-08-26T02:40:16.669Z,61764.91
2022-08-26T02:42:43.132Z,61723.47
2022-08-26T02:45:10.802Z,61715.19
2022-08-26T02:47:37.364Z,61669.59
2022-08-26T02:50:04.314Z,61659.25
2022-08-26T02:52:30.874Z,61696.53
2022-08-26T02:54:58.640Z,61644.75
2022-08-26T02:57:25.916Z,61820.84
2022-08-26T02:59:52.587Z,61853.97
2022-08-26T03:02:18.952Z,61916.13
2022-08-26T03:04:58.098Z,61901.63
2022-08-26T03:07:28.849Z,62028.03
2022-08-26T03:09:56.752Z,62115.03
2022-08-26T03:12:23.790Z,62144.03
2022-08-26T03:14:51.981Z,62181.34
2022-08-26T03:17:18.625Z,62212.41
2022-08-26T03:19:44.946Z,62183.41
2022-08-26T03:22:11.966Z,62276.66
2022-08-26T03:24:40.905Z,62195.84
2022-08-26T03:27:10.730Z,62200.00
2022-08-26T03:29:55.958Z,62229.00
2022-08-26T03:32:22.282Z,62235.22
2022-08-26T03:34:53.338Z,62158.56
2022-08-26T03:37:20.796Z,62210.34
2022-08-26T03:39:47.290Z,62243.50
2022-08-26T03:42:14.871Z,62262.16
2022-08-26T03:44:42.205Z,62287.00
2022-08-26T03:47:08.726Z,62251.78
2022-08-26T03:49:35.798Z,62297.38
2022-08-26T03:52:02.497Z,62247.66
2022-08-26T03:54:30.093Z,62324.31
2022-08-26T03:56:56.441Z,62334.66
2022-08-26T03:59:23.686Z,62218.63
2022-08-26T04:01:50.962Z,62208.28
2022-08-26T04:04:18.128Z,62241.44
2022-08-26T04:06:49.232Z,62361.59
2022-08-26T04:09:20.899Z,62187.56
2022-08-26T04:11:47.559Z,62233.13
2022-08-26T04:14:20.246Z,62287.00
2022-08-26T04:16:46.765Z,62235.22
2022-08-26T04:19:14.283Z,62260.06
2022-08-26T04:21:41.362Z,62355.38
2022-08-26T04:24:11.700Z,62177.19
2022-08-26T04:26:39.473Z,62243.50
2022-08-26T04:29:13.381Z,62200.00
2022-08-26T04:31:39.719Z,62202.06
2022-08-26T04:34:06.224Z,62243.50
2022-08-26T04:36:32.681Z,62345.03
2022-08-26T04:39:00.713Z,62231.06
2022-08-26T04:41:27.768Z,62371.97
2022-08-26T04:43:57.942Z,62347.09
2022-08-26T04:46:24.692Z,62365.75
2022-08-26T04:48:52.510Z,62311.88
2022-08-26T04:51:19.507Z,62361.59
2022-08-26T04:53:45.967Z,62415.47
2022-08-26T04:56:12.785Z,62347.09
2022-08-26T04:58:39.197Z,62349.19
2022-08-26T05:01:05.675Z,62355.38
2022-08-26T05:03:31.968Z,62361.59
2022-08-26T05:05:58.546Z,62434.13
2022-08-26T05:08:25.574Z,62374.03
2022-08-26T05:10:54.568Z,62363.69
2022-08-26T05:13:26.351Z,62378.19
2022-08-26T05:15:53.405Z,62413.41
2022-08-26T05:18:23.596Z,62396.84
2022-08-26T05:20:51.372Z,62386.47
2022-08-26T05:23:22.562Z,62488.00
2022-08-26T05:25:49.257Z,62425.84
2022-08-26T05:28:16.331Z,62434.13
2022-08-26T05:30:43.216Z,62475.56
2022-08-26T05:33:11.276Z,62485.94
2022-08-26T05:35:38.309Z,62546.03
2022-08-26T05:38:11.813Z,62554.31
2022-08-26T05:40:44.565Z,62616.47
2022-08-26T05:43:11.383Z,62546.03
2022-08-26T05:45:41.238Z,62527.38
2022-08-26T05:48:11.254Z,62599.91
2022-08-26T05:50:38.584Z,62517.00
2022-08-26T05:53:05.650Z,62554.31
2022-08-26T05:55:33.205Z,62585.41
2022-08-26T05:58:00.826Z,62682.78
2022-08-26T06:00:29.150Z,62715.94
2022-08-26T06:02:55.596Z,62695.22
2022-08-26T06:05:22.398Z,62817.47
2022-08-26T06:08:08.052Z,62871.38
2022-08-26T06:10:37.677Z,62890.00
2022-08-26T06:13:11.918Z,62885.88
2022-08-26T06:15:42.962Z,62788.47
2022-08-26T06:18:10.612Z,62655.84
2022-08-26T06:20:37.672Z,62722.16
2022-08-26T06:23:22.781Z,62761.53
2022-08-26T06:25:50.458Z,62821.63
2022-08-26T06:28:17.238Z,62749.09
2022-08-26T06:30:44.513Z,62709.72
2022-08-26T06:33:11.445Z,62732.53
2022-08-26T06:35:38.643Z,62755.31
2022-08-26T06:38:05.777Z,62829.91
2022-08-26T06:40:32.712Z,62885.88
2022-08-26T06:42:59.030Z,62873.44
2022-08-26T06:45:25.362Z,62846.50
2022-08-26T06:47:52.740Z,62817.47
2022-08-26T06:50:19.056Z,62732.53
2022-08-26T06:52:45.407Z,62728.38
2022-08-26T06:55:11.837Z,62736.66
2022-08-26T06:57:41.119Z,62778.13
2022-08-26T07:00:10.409Z,62713.88
2022-08-26T07:02:37.329Z,62782.25
2022-08-26T07:05:04.016Z,62867.22
2022-08-26T07:07:31.068Z,62999.84
2022-08-26T07:09:57.953Z,63122.13
2022-08-26T07:12:24.694Z,63024.72
2022-08-26T07:14:51.749Z,63068.25
2022-08-26T07:17:20.394Z,62979.13
2022-08-26T07:19:47.040Z,62995.72
2022-08-26T07:22:13.398Z,63014.34
2022-08-26T07:24:42.743Z,63147.00
2022-08-26T07:27:11.717Z,63149.06
2022-08-26T07:29:39.057Z,63134.56
2022-08-26T07:32:05.790Z,63109.69
2022-08-26T07:34:33.388Z,63006.06
2022-08-26T07:37:00.292Z,62989.50
2022-08-26T07:39:27.276Z,63107.63
2022-08-26T07:41:54.050Z,63178.09
2022-08-26T07:44:20.946Z,63213.31
2022-08-26T07:46:52.429Z,63242.31
2022-08-26T07:49:20.178Z,63236.09
2022-08-26T07:51:46.676Z,63223.69
2022-08-26T07:54:13.034Z,63242.31
2022-08-26T07:56:39.401Z,63242.31
2022-08-26T07:59:13.646Z,63290.00
2022-08-26T08:01:40.608Z,63285.84
2022-08-26T08:04:12.033Z,63420.56
2022-08-26T08:06:43.881Z,63524.19
2022-08-26T08:09:13.315Z,63592.59
2022-08-26T08:11:39.726Z,63799.88
2022-08-26T08:14:08.298Z,63658.94
2022-08-26T08:16:37.261Z,63727.31
2022-08-26T08:19:05.535Z,63619.53
2022-08-26T08:21:31.899Z,63619.53
2022-08-26T08:23:58.395Z,63677.59
2022-08-26T08:26:26.048Z,63623.69
2022-08-26T08:28:57.163Z,63470.31
2022-08-26T08:31:54.382Z,63520.06
2022-08-26T08:34:12.026Z,63333.53
2022-08-26T08:36:38.509Z,63296.22
2022-08-26T08:39:04.877Z,63269.28
2022-08-26T08:41:38.888Z,63316.94
2022-08-26T08:44:08.729Z,63265.13
2022-08-26T08:46:35.877Z,63302.44
2022-08-26T08:49:04.182Z,63184.28
2022-08-26T08:51:33.481Z,63333.53
2022-08-26T08:54:00.374Z,63192.59
2022-08-26T08:56:26.710Z,63350.09
2022-08-26T08:58:56.887Z,63443.38
2022-08-26T09:01:39.359Z,63549.06
2022-08-26T09:04:24.585Z,63420.56
2022-08-26T09:06:53.059Z,63418.50
2022-08-26T09:09:46.039Z,63399.84
2022-08-26T09:12:20.336Z,63484.81
2022-08-26T09:14:47.431Z,63379.13
2022-08-26T09:17:23.518Z,63404.00
2022-08-26T09:19:51.836Z,63354.25
2022-08-26T09:22:31.637Z,63341.81
2022-08-26T09:24:58.036Z,63457.88
2022-08-26T09:27:37.783Z,63528.34
2022-08-26T09:30:05.262Z,63501.41
2022-08-26T09:32:32.107Z,63719.03
2022-08-26T09:35:25.647Z,63808.16
2022-08-26T09:40:19.299Z,63980.22
2022-08-26T09:42:46.811Z,64000.94
2022-08-26T09:45:14.806Z,64042.41
2022-08-26T09:47:46.461Z,63884.84
2022-08-26T09:50:27.068Z,63980.22
2022-08-26T09:53:12.935Z,63901.44
2022-08-26T09:55:41.873Z,63963.63
2022-08-26T09:58:09.316Z,63880.72
2022-08-26T10:00:38.424Z,63768.78
2022-08-26T10:03:12.042Z,63661.00
2022-08-26T10:05:43.651Z,63675.50
2022-08-26T10:08:28.768Z,63719.03
2022-08-26T10:10:56.284Z,63783.28
2022-08-26T10:13:32.528Z,63793.66
2022-08-26T10:16:01.915Z,63756.34
2022-08-26T10:18:34.213Z,63785.38
2022-08-26T10:21:03.002Z,63748.06
2022-08-26T10:23:31.403Z,63828.91
2022-08-26T10:26:09.713Z,63942.91
2022-08-26T10:28:50.065Z,64079.72
2022-08-26T10:31:30.098Z,64212.38
2022-08-26T10:34:04.693Z,64013.38
2022-08-26T10:37:15.442Z,63837.19
2022-08-26T10:39:46.467Z,63685.88
2022-08-26T10:42:23.187Z,63766.72
2022-08-26T10:44:50.363Z,63886.94
2022-08-26T10:47:18.558Z,63944.97
2022-08-26T10:49:48.463Z,63959.47
2022-08-26T10:52:21.046Z,63976.06
2022-08-26T10:54:59.749Z,63953.25
2022-08-26T10:57:26.130Z,64156.41
2022-08-26T11:00:29.232Z,64324.31
2022-08-26T11:03:27.730Z,64407.25
2022-08-26T11:06:12.832Z,64786.66
2022-08-26T11:08:50.057Z,64817.75
2022-08-26T11:11:37.301Z,64614.56
2022-08-26T11:14:10.473Z,64411.41
2022-08-26T11:16:44.890Z,64602.13
2022-08-26T11:19:12.824Z,64616.66
2022-08-26T11:21:58.618Z,64515.06
2022-08-26T11:24:40.527Z,64459.09
2022-08-26T11:27:08.974Z,64305.66
2022-08-26T11:29:55.814Z,64438.34
2022-08-26T11:32:34.629Z,64600.06
2022-08-26T11:35:04.652Z,64678.84
2022-08-26T11:37:51.218Z,64452.88
2022-08-26T11:40:22.630Z,64465.31
2022-08-26T11:42:59.613Z,64506.75
2022-08-26T11:45:45.287Z,64459.09
2022-08-26T11:48:33.289Z,64469.44
2022-08-26T11:51:01.760Z,64525.44
2022-08-26T11:53:30.283Z,64481.88
2022-08-26T11:55:57.205Z,64320.19
2022-08-26T11:58:24.793Z,64407.25
2022-08-26T12:00:52.976Z,64539.94
2022-08-26T12:03:23.902Z,64490.19
2022-08-26T12:05:51.916Z,64382.38
2022-08-26T12:08:21.147Z,64349.22
2022-08-26T12:10:50.947Z,64492.25
2022-08-26T12:13:20.361Z,64618.72
2022-08-26T12:15:59.989Z,64693.34
2022-08-26T12:18:30.119Z,64589.69
2022-08-26T12:20:58.205Z,64562.75
2022-08-26T12:23:41.843Z,64411.41
2022-08-26T12:26:10.415Z,64656.03
2022-08-26T12:28:49.229Z,64792.88
2022-08-26T12:31:20.344Z,64788.72
2022-08-26T12:33:46.691Z,64794.94
2022-08-26T12:36:19.183Z,64830.19
2022-08-26T12:38:46.609Z,64855.06
2022-08-26T12:41:15.325Z,64645.66
2022-08-26T12:43:43.022Z,64556.53
2022-08-26T12:46:11.123Z,64475.66
2022-08-26T12:48:38.502Z,64741.03
2022-08-26T12:51:09.132Z,64616.66
2022-08-26T12:53:37.480Z,64467.38
2022-08-26T12:56:05.263Z,64293.22
2022-08-26T12:58:32.614Z,64191.66
2022-08-26T13:01:05.959Z,64291.16
2022-08-26T13:03:37.310Z,64220.69
2022-08-26T13:06:15.715Z,64220.69
2022-08-26T13:08:53.057Z,64428.00
2022-08-26T13:11:25.594Z,64494.31
2022-08-26T13:13:53.625Z,64490.19
2022-08-26T13:16:20.711Z,64552.38
2022-08-26T13:18:47.994Z,64486.03
2022-08-26T13:21:21.579Z,64332.63
2022-08-26T13:23:48.170Z,64355.44
2022-08-26T13:26:14.722Z,64473.59
2022-08-26T13:28:42.123Z,64600.06
2022-08-26T13:31:08.945Z,64475.66
2022-08-26T13:33:36.284Z,64585.53
2022-08-26T13:36:03.513Z,64465.31
2022-08-26T13:38:33.456Z,64311.91
2022-08-26T13:41:00.678Z,64434.19
2022-08-26T13:43:27.616Z,64504.69
2022-08-26T13:45:54.039Z,64303.59
2022-08-26T13:48:23.279Z,64388.59
2022-08-26T13:50:50.042Z,64301.53
2022-08-26T13:53:16.579Z,64104.59
2022-08-26T13:55:43.217Z,64179.22
2022-08-26T13:58:10.332Z,64247.63
2022-08-26T14:00:37.370Z,64322.25
2022-08-26T14:03:09.143Z,64069.34
2022-08-26T14:05:37.860Z,64218.59
2022-08-26T14:08:04.413Z,64237.25
2022-08-26T14:10:30.785Z,64094.22
2022-08-26T14:12:57.275Z,64212.38
2022-08-26T14:15:23.667Z,64224.81
2022-08-26T14:17:50.974Z,63957.41
2022-08-26T14:20:22.618Z,63992.66
2022-08-26T14:23:12.608Z,63895.22
2022-08-26T14:25:35.258Z,63905.59
2022-08-26T14:28:01.590Z,63739.75
2022-08-26T14:30:28.346Z,63743.91
2022-08-26T14:32:55.322Z,63725.25
2022-08-26T14:35:23.366Z,63820.59
2022-08-26T14:37:50.065Z,63733.53
2022-08-26T14:40:18.708Z,63665.16
2022-08-26T14:42:49.703Z,63775.00
2022-08-26T14:45:21.326Z,63822.69
2022-08-26T14:47:48.114Z,63953.25
2022-08-26T14:50:16.022Z,63932.53
2022-08-26T14:53:01.338Z,63760.50
2022-08-26T14:55:27.864Z,63795.72
2022-08-26T14:57:54.202Z,63793.66
2022-08-26T15:00:20.568Z,63733.53
2022-08-26T15:02:47.099Z,63820.59
2022-08-26T15:05:13.578Z,63777.06
2022-08-26T15:07:40.138Z,63907.66
2022-08-26T15:10:07.354Z,63884.84
2022-08-26T15:12:33.721Z,63731.47
2022-08-26T15:15:00.260Z,63806.09
2022-08-26T15:17:26.611Z,63605.03
2022-08-26T15:19:52.918Z,63607.09
2022-08-26T15:22:19.320Z,63576.03
2022-08-26T15:24:45.630Z,63497.25
2022-08-26T15:27:12.293Z,63644.41
2022-08-26T15:29:39.041Z,63781.22
2022-08-26T15:32:05.454Z,63830.97
2022-08-26T15:34:31.946Z,64100.44
2022-08-26T15:36:58.562Z,64100.44
2022-08-26T15:39:24.941Z,63893.16
2022-08-26T15:41:51.570Z,63843.41
2022-08-26T15:44:18.399Z,63810.25
2022-08-26T15:46:44.787Z,63801.94
2022-08-26T15:49:11.975Z,63702.44
2022-08-26T15:51:46.278Z,63642.34
2022-08-26T15:54:12.942Z,63563.59
2022-08-26T15:56:39.439Z,63445.44
2022-08-26T15:59:07.718Z,63275.50
2022-08-26T16:01:34.588Z,63221.59
2022-08-26T16:04:01.243Z,63151.13
2022-08-26T16:06:29.417Z,63273.41
2022-08-26T16:08:56.275Z,63304.50
2022-08-26T16:11:23.086Z,63321.09
2022-08-26T16:13:49.737Z,63273.41
2022-08-26T16:16:16.194Z,63341.81
2022-08-26T16:18:42.805Z,63292.06
2022-08-26T16:21:13.479Z,63182.22
2022-08-26T16:23:40.577Z,63221.59
2022-08-26T16:26:12.321Z,63225.75
2022-08-26T16:28:38.664Z,63225.75
2022-08-26T16:31:05.612Z,63113.84
2022-08-26T16:33:31.995Z,63076.53
2022-08-26T16:35:58.618Z,63062.03
2022-08-26T16:38:24.969Z,63084.81
2022-08-26T16:40:51.628Z,63080.69
2022-08-26T16:43:17.939Z,62985.34
2022-08-26T16:45:44.263Z,63068.25
2022-08-26T16:48:10.845Z,63095.19
2022-08-26T16:50:37.910Z,63155.28
2022-08-26T16:53:04.554Z,63066.16
2022-08-26T16:55:31.704Z,63122.13
2022-08-26T16:57:58.007Z,63022.66
2022-08-26T17:00:26.090Z,63107.63
2022-08-26T17:02:52.489Z,63074.47
2022-08-26T17:05:18.887Z,62962.56
2022-08-26T17:07:45.934Z,63010.22
2022-08-26T17:10:12.979Z,62972.91
2022-08-26T17:12:39.568Z,62910.75
2022-08-26T17:15:06.611Z,62848.56
2022-08-26T17:17:33.077Z,62883.78
2022-08-26T17:19:59.997Z,62852.72
2022-08-26T17:22:26.459Z,62958.41
2022-08-26T17:24:52.882Z,62883.78
2022-08-26T17:27:19.834Z,62916.97
2022-08-26T17:29:46.158Z,62929.38
2022-08-26T17:32:12.570Z,62858.94
2022-08-26T17:34:38.966Z,62823.69
2022-08-26T17:37:05.480Z,62798.84
2022-08-26T17:39:32.355Z,62773.97
2022-08-26T17:41:58.666Z,62728.38
2022-08-26T17:44:25.108Z,62759.47
2022-08-26T17:46:51.596Z,62715.94
2022-08-26T17:49:18.252Z,62668.28
2022-08-26T17:51:44.609Z,62699.38
2022-08-26T17:54:10.946Z,62653.78
2022-08-26T17:56:37.274Z,62645.50
2022-08-26T17:59:04.627Z,62564.66
2022-08-26T18:01:31.213Z,62655.84
2022-08-26T18:04:00.485Z,62587.47
2022-08-26T18:06:27.645Z,62587.47
2022-08-26T18:08:54.741Z,62608.19
2022-08-26T18:11:23.481Z,62570.88
2022-08-26T18:13:49.857Z,62622.69
2022-08-26T18:16:17.235Z,62589.53
2022-08-26T18:18:43.751Z,62624.75
2022-08-26T18:21:17.645Z,62579.19
2022-08-26T18:23:44.475Z,62645.50
2022-08-26T18:26:21.269Z,62616.47
2022-08-26T18:28:47.730Z,62651.69
2022-08-26T18:31:15.159Z,62550.16
2022-08-26T18:33:42.954Z,62595.75
2022-08-26T18:36:16.638Z,62450.72
2022-08-26T18:38:42.985Z,62496.28
2022-08-26T18:41:09.269Z,62459.00
2022-08-26T18:43:36.203Z,62479.72
2022-08-26T18:46:04.131Z,62459.00
2022-08-26T18:48:30.479Z,62492.16
2022-08-26T18:51:00.080Z,62436.19
2022-08-26T18:53:27.363Z,62500.44
2022-08-26T18:55:53.739Z,62471.44
2022-08-26T18:58:20.053Z,62438.28
2022-08-26T19:00:46.450Z,62419.63
2022-08-26T19:03:18.721Z,62374.03
2022-08-26T19:05:45.787Z,62403.03
2022-08-26T19:08:12.143Z,62409.25
2022-08-26T19:10:38.962Z,62369.91
2022-08-26T19:13:06.721Z,62403.03
2022-08-26T19:15:37.142Z,62359.53
2022-08-26T19:18:03.639Z,62384.41
2022-08-26T19:20:29.973Z,62311.88
2022-08-26T19:22:59.670Z,62243.50
2022-08-26T19:25:28.922Z,62210.34
2022-08-26T19:27:55.263Z,62204.13
2022-08-26T19:30:21.629Z,62218.63
2022-08-26T19:32:52.197Z,62177.19
2022-08-26T19:35:18.577Z,62175.13
2022-08-26T19:37:46.035Z,62094.31
2022-08-26T19:40:12.425Z,62081.88
2022-08-26T19:42:38.986Z,62156.47
2022-08-26T19:45:15.704Z,62146.13
2022-08-26T19:47:52.867Z,62094.31
2022-08-26T19:50:19.213Z,62065.31
2022-08-26T19:52:45.547Z,62071.53
2022-08-26T19:55:13.112Z,61988.66
2022-08-26T19:57:40.129Z,62025.94
2022-08-26T20:00:11.511Z,61992.78
2022-08-26T20:02:39.701Z,61947.22
2022-08-26T20:05:09.012Z,61965.88
2022-08-26T20:07:35.798Z,61959.66
2022-08-26T20:10:03.330Z,61901.63
2022-08-26T20:12:33.124Z,61924.44
2022-08-26T20:14:59.513Z,61924.44
2022-08-26T20:17:26.234Z,61938.94
2022-08-26T20:20:14.765Z,61883.00
2022-08-26T20:23:01.536Z,61928.56
2022-08-26T20:25:27.958Z,61870.56
2022-08-26T20:27:54.908Z,61887.13
2022-08-26T20:30:21.494Z,61878.84
2022-08-26T20:32:48.458Z,61841.56
2022-08-26T20:35:15.005Z,61907.84
2022-08-26T20:37:41.766Z,61885.06
2022-08-26T20:40:09.258Z,61837.41
2022-08-26T20:42:35.598Z,61789.75
2022-08-26T20:45:02.886Z,61814.63
2022-08-26T20:47:32.669Z,61800.13
2022-08-26T20:50:02.691Z,61742.09
2022-08-26T20:52:30.280Z,61713.09
2022-08-26T20:54:56.683Z,61682.03
2022-08-26T20:57:22.999Z,61746.25
2022-08-26T20:59:49.618Z,61723.47
2022-08-26T21:02:16.051Z,61677.88
2022-08-26T21:04:42.433Z,61626.09
2022-08-26T21:07:08.835Z,61561.88
2022-08-26T21:09:35.216Z,61599.16
2022-08-26T21:12:01.872Z,61572.22
2022-08-26T21:14:28.245Z,61605.38
2022-08-26T21:16:56.306Z,61563.94
2022-08-26T21:19:23.086Z,61601.22
2022-08-26T21:21:49.561Z,61582.59
2022-08-26T21:24:16.081Z,61518.38
2022-08-26T21:26:42.528Z,61557.72
2022-08-26T21:29:09.775Z,61497.66
2022-08-26T21:31:36.655Z,61522.50
2022-08-26T21:34:05.923Z,61495.56
2022-08-26T21:36:32.284Z,61516.28
2022-08-26T21:38:58.924Z,61522.50
2022-08-26T21:41:25.981Z,61439.66
2022-08-26T21:43:53.848Z,61479.00
2022-08-26T21:46:21.873Z,61493.50
2022-08-26T21:48:50.936Z,61418.94
2022-08-26T21:51:18.251Z,61431.34
2022-08-26T21:53:48.985Z,61452.06
2022-08-26T21:56:16.295Z,61392.00
2022-08-26T21:58:42.774Z,61423.06
2022-08-26T22:01:10.350Z,61418.94
2022-08-26T22:03:39.306Z,61340.22
2022-08-26T22:06:14.469Z,61365.06
2022-08-26T22:08:41.224Z,61398.22
2022-08-26T22:11:09.401Z,61445.84
2022-08-26T22:13:37.795Z,61414.78
2022-08-26T22:16:04.872Z,61414.78
2022-08-26T22:18:31.465Z,61389.94
2022-08-26T22:20:59.091Z,61367.13
2022-08-26T22:23:25.493Z,61286.34
2022-08-26T22:25:51.915Z,61325.72
2022-08-26T22:28:18.487Z,61348.50
2022-08-26T22:30:45.009Z,61265.63
2022-08-26T22:33:11.484Z,61263.56
2022-08-26T22:35:38.461Z,61203.50
2022-08-26T22:38:04.976Z,61265.63
2022-08-26T22:40:31.344Z,61323.63
2022-08-26T22:43:00.163Z,61263.56
2022-08-26T22:45:27.240Z,61249.06
2022-08-26T22:47:53.657Z,61280.13
2022-08-26T22:50:19.989Z,61199.34
2022-08-26T22:52:46.285Z,61197.28
2022-08-26T22:55:12.617Z,61224.22
2022-08-26T22:57:39.073Z,61172.41
2022-08-26T23:00:08.355Z,61139.28
2022-08-26T23:02:38.302Z,61164.13
2022-08-26T23:05:05.025Z,61128.91
2022-08-26T23:07:31.421Z,61141.34
2022-08-26T23:09:57.773Z,61095.78
2022-08-26T23:12:24.255Z,61153.78
2022-08-26T23:14:50.619Z,61091.63
2022-08-26T23:17:16.951Z,61095.78
2022-08-26T23:19:43.314Z,61066.78
2022-08-26T23:22:09.778Z,61087.50
2022-08-26T23:24:36.130Z,61068.84
2022-08-26T23:27:02.548Z,61058.50
2022-08-26T23:29:29.148Z,61060.56
2022-08-26T23:31:55.523Z,61077.13
2022-08-26T23:34:40.834Z,61112.34
2022-08-26T23:37:11.728Z,61124.78
2022-08-26T23:39:40.503Z,61118.56
2022-08-26T23:42:08.129Z,61093.72
2022-08-26T23:44:34.963Z,61180.72
2022-08-26T23:47:01.568Z,61139.28
2022-08-26T23:49:28.279Z,61112.34
2022-08-26T23:52:13.399Z,61170.34
2022-08-26T23:54:42.689Z,61176.56
2022-08-26T23:57:09.409Z,61166.22
2022-08-26T23:59:37.158Z,61133.06
